Time;durP1;ratioP1;P1;durP2;ratioP2;P2;SDS_P1;SDS_P2;PMS_P1;PMS_P2;Temp;Humidity;BMP_temperature;BMP_pressure;BME280_temperature;BME280_humidity;BME280_pressure;Samples;Min_cycle;Max_cycle;Signal;HPM_P1;HPM_P2
2021/08/20 00:03:31;;;;;;;;;27.00;22.00;;;;;;;;6489044;31;8981;-62
2021/08/20 00:09:33;;;;;;;;;25.00;21.33;;;;;;;;6488341;46;9049;-62
2021/08/20 00:15:36;;;;;;;;;26.67;22.67;;;;;;;;6488388;39;8956;-60
2021/08/20 00:21:40;;;;;;;;;23.33;22.67;;;;;;;;6488509;39;9001;-61
2021/08/20 00:27:42;;;;;;;;;20.00;18.67;;;;;;;;6487550;47;8973;-62
2021/08/20 00:33:45;;;;;;;;;25.00;22.67;;;;;;;;6489402;46;8930;-59
2021/08/20 00:39:48;;;;;;;;;22.33;20.67;;;;;;;;6490157;46;9004;-61
2021/08/20 00:45:58;;;;;;;;;19.00;19.00;;;;;;;;6490247;46;8993;-61
2021/08/20 00:52:02;;;;;;;;;22.33;20.67;;;;;;;;6490318;31;9052;-61
2021/08/20 00:58:05;;;;;;;;;25.33;24.00;;;;;;;;6489944;46;9045;-62
2021/08/20 01:04:09;;;;;;;;;24.67;23.00;;;;;;;;6490207;39;9001;-61
2021/08/20 01:10:13;;;;;;;;;27.00;25.67;;;;;;;;6490109;46;8970;-60
2021/08/20 01:16:15;;;;;;;;;25.67;24.33;;;;;;;;6491068;39;8981;-62
2021/08/20 01:22:18;;;;;;;;;23.33;22.33;;;;;;;;6488858;31;9073;-61
2021/08/20 01:28:24;;;;;;;;;25.67;25.00;;;;;;;;6488856;46;8945;-61
2021/08/20 01:34:30;;;;;;;;;25.33;25.33;;;;;;;;6489503;39;9654;-61
2021/08/20 01:40:33;;;;;;;;;24.33;23.00;;;;;;;;6488770;46;9043;-60
2021/08/20 01:46:36;;;;;;;;;20.33;18.00;;;;;;;;6489069;39;8966;-62
2021/08/20 01:52:40;;;;;;;;;32.67;29.67;;;;;;;;6489236;39;8948;-60
2021/08/20 01:58:43;;;;;;;;;29.00;27.00;;;;;;;;6490314;39;8938;-62
2021/08/20 02:04:46;;;;;;;;;21.33;20.67;;;;;;;;6489989;39;9060;-61
2021/08/20 02:10:49;;;;;;;;;31.00;28.00;;;;;;;;6489439;46;9029;-63
2021/08/20 02:16:53;;;;;;;;;26.67;26.67;;;;;;;;6489728;39;9639;-60
2021/08/20 02:22:56;;;;;;;;;33.67;30.67;;;;;;;;6489202;46;8974;-61
2021/08/20 02:29:01;;;;;;;;;30.67;28.67;;;;;;;;6489506;31;9059;-61
2021/08/20 02:35:03;;;;;;;;;34.67;30.00;;;;;;;;6488941;39;8954;-62
2021/08/20 02:41:05;;;;;;;;;33.67;32.00;;;;;;;;6489341;31;8977;-61
2021/08/20 02:47:09;;;;;;;;;31.00;30.00;;;;;;;;6489593;39;9424;-61
2021/08/20 02:53:11;;;;;;;;;31.00;30.67;;;;;;;;6490341;39;8913;-61
2021/08/20 02:59:13;;;;;;;;;36.00;32.00;;;;;;;;6489726;31;9716;-61
2021/08/20 03:05:16;;;;;;;;;31.33;27.00;;;;;;;;6489490;39;8977;-61
2021/08/20 03:11:39;;;;;;;;;35.33;33.33;;;;;;;;6488792;39;9515;-60
2021/08/20 03:17:42;;;;;;;;;28.00;26.33;;;;;;;;6488313;39;9059;-61
2021/08/20 03:23:47;;;;;;;;;35.00;31.00;;;;;;;;6488226;46;9017;-61
2021/08/20 03:29:58;;;;;;;;;36.00;35.33;;;;;;;;6488672;39;8881;-61
2021/08/20 03:36:11;;;;;;;;;35.00;34.67;;;;;;;;6488731;39;8898;-60
2021/08/20 03:42:23;;;;;;;;;36.00;32.33;;;;;;;;6489148;39;9008;-61
2021/08/20 03:49:04;;;;;;;;;35.67;33.67;;;;;;;;6488983;47;8874;-61
2021/08/20 03:55:15;;;;;;;;;36.00;32.67;;;;;;;;6488828;39;8865;-60
2021/08/20 04:01:58;;;;;;;;;37.00;34.33;;;;;;;;6474109;39;9464;-61
2021/08/20 04:08:09;;;;;;;;;34.33;31.00;;;;;;;;6487848;31;9408;-63
2021/08/20 04:14:40;;;;;;;;;27.00;26.00;;;;;;;;6493164;31;9620;-63
2021/08/20 04:20:51;;;;;;;;;27.33;27.33;;;;;;;;6493090;39;9632;-64
2021/08/20 04:27:03;;;;;;;;;31.00;27.33;;;;;;;;6492413;39;8926;-61
2021/08/20 04:33:35;;;;;;;;;29.67;28.33;;;;;;;;6493694;46;8898;-62
2021/08/20 04:40:06;;;;;;;;;23.33;23.33;;;;;;;;6492423;31;9012;-65
2021/08/20 04:46:51;;;;;;;;;25.67;25.00;;;;;;;;6493238;39;9325;-62
2021/08/20 04:53:32;;;;;;;;;21.67;20.00;;;;;;;;6491949;46;8990;-63
2021/08/20 05:00:05;;;;;;;;;23.50;22.00;;;;;;;;6492946;31;8902;-63
2021/08/20 05:06:16;;;;;;;;;25.67;22.00;;;;;;;;6492372;39;8950;-63
2021/08/20 05:12:27;;;;;;;;;24.67;23.00;;;;;;;;6491528;46;8895;-62
2021/08/20 05:18:38;;;;;;;;;29.00;26.67;;;;;;;;6491676;39;8894;-63
2021/08/20 05:24:49;;;;;;;;;21.33;21.33;;;;;;;;6493433;31;8902;-59
2021/08/20 05:31:00;;;;;;;;;22.00;21.33;;;;;;;;6492782;31;9052;-60
2021/08/20 05:37:10;;;;;;;;;23.00;22.00;;;;;;;;6492433;46;8901;-60
2021/08/20 05:43:21;;;;;;;;;21.00;18.67;;;;;;;;6492510;46;8887;-58
2021/08/20 05:49:32;;;;;;;;;24.67;24.33;;;;;;;;6491757;46;8910;-58
2021/08/20 05:55:42;;;;;;;;;22.00;20.67;;;;;;;;6492846;46;8983;-60
2021/08/20 06:01:54;;;;;;;;;24.00;21.33;;;;;;;;6492059;39;8954;-58
2021/08/20 06:08:06;;;;;;;;;27.00;26.00;;;;;;;;6492499;31;8866;-59
2021/08/20 06:14:17;;;;;;;;;23.00;22.00;;;;;;;;6491124;39;8911;-59
2021/08/20 06:20:27;;;;;;;;;24.67;24.67;;;;;;;;6491496;39;8855;-58
2021/08/20 06:26:38;;;;;;;;;24.67;22.00;;;;;;;;6490742;46;8918;-60
2021/08/20 06:32:50;;;;;;;;;27.67;26.67;;;;;;;;6491138;31;9057;-58
2021/08/20 06:39:01;;;;;;;;;17.67;17.67;;;;;;;;6490075;39;8919;-58
2021/08/20 06:45:12;;;;;;;;;22.67;19.67;;;;;;;;6487289;39;8946;-58
2021/08/20 06:51:24;;;;;;;;;21.67;19.67;;;;;;;;6488318;39;8918;-61
2021/08/20 06:57:35;;;;;;;;;26.00;22.67;;;;;;;;6487581;31;9003;-60
2021/08/20 07:03:46;;;;;;;;;16.50;13.50;;;;;;;;6491046;31;8999;-59
2021/08/20 07:09:57;;;;;;;;;20.00;19.33;;;;;;;;6491207;39;8965;-59
2021/08/20 07:16:07;;;;;;;;;17.67;17.67;;;;;;;;6490276;46;8915;-57
2021/08/20 07:22:18;;;;;;;;;25.00;21.50;;;;;;;;6489364;39;8959;-58
2021/08/20 07:28:31;;;;;;;;;20.50;19.50;;;;;;;;6487654;46;8907;-60
2021/08/20 07:34:42;;;;;;;;;22.00;22.00;;;;;;;;6491265;46;8998;-60
2021/08/20 07:40:53;;;;;;;;;17.25;16.00;;;;;;;;6488550;47;8967;-60
2021/08/20 07:47:04;;;;;;;;;23.50;16.75;;;;;;;;6129246;36;10000996;-59
2021/08/20 07:53:16;;;;;;;;;22.75;18.25;;;;;;;;6489860;39;8977;-60
2021/08/20 07:59:32;;;;;;;;;21.50;19.00;;;;;;;;6489382;39;8922;-59
2021/08/20 08:05:42;;;;;;;;;17.25;17.00;;;;;;;;6489157;39;9008;-59
2021/08/20 08:11:54;;;;;;;;;22.25;20.50;;;;;;;;6489051;39;8906;-58
2021/08/20 08:18:06;;;;;;;;;15.75;15.75;;;;;;;;6491640;31;8875;-60
2021/08/20 08:24:17;;;;;;;;;14.75;14.50;;;;;;;;6490848;31;8997;-59
2021/08/20 08:30:33;;;;;;;;;15.75;14.75;;;;;;;;6491035;39;8872;-59
2021/08/20 08:36:43;;;;;;;;;16.00;13.50;;;;;;;;6488181;39;9772;-59
2021/08/20 08:42:56;;;;;;;;;15.50;15.50;;;;;;;;6129278;31;10001219;-59
2021/08/20 08:49:13;;;;;;;;;16.00;15.00;;;;;;;;6488009;39;8958;-59
2021/08/20 08:55:23;;;;;;;;;13.25;13.25;;;;;;;;6486203;39;9005;-60
2021/08/20 09:01:38;;;;;;;;;12.75;8.75;;;;;;;;6487329;31;8970;-60
2021/08/20 09:07:52;;;;;;;;;13.00;10.75;;;;;;;;6487374;31;8981;-59
2021/08/20 09:14:03;;;;;;;;;13.25;12.25;;;;;;;;6489114;39;8860;-58
2021/08/20 09:20:17;;;;;;;;;14.25;14.25;;;;;;;;6497386;36;9544;-60
2021/08/20 09:26:28;;;;;;;;;12.25;12.25;;;;;;;;6491960;46;8990;-60
2021/08/20 09:32:51;;;;;;;;;16.75;16.75;;;;;;;;6492306;39;8990;-59
2021/08/20 09:39:03;;;;;;;;;17.50;15.75;;;;;;;;6490627;46;8924;-60
2021/08/20 09:45:20;;;;;;;;;15.75;15.75;;;;;;;;6493333;31;8988;-59
2021/08/20 09:51:36;;;;;;;;;13.00;11.75;;;;;;;;6491924;39;8981;-59
2021/08/20 09:57:47;;;;;;;;;63.33;50.33;;;;;;;;6492944;39;8922;-58
2021/08/20 10:04:01;;;;;;;;;17.75;17.00;;;;;;;;6491971;39;8986;-58
2021/08/20 10:10:12;;;;;;;;;18.75;18.75;;;;;;;;6492212;39;8875;-59
2021/08/20 10:16:23;;;;;;;;;15.00;13.25;;;;;;;;6491768;31;8984;-59
2021/08/20 10:22:25;;;;;;;;;17.00;16.00;;;;;;;;6491810;39;8996;-59
2021/08/20 10:28:28;;;;;;;;;15.00;15.00;;;;;;;;6492731;39;8973;-59
2021/08/20 10:34:30;;;;;;;;;13.75;12.00;;;;;;;;6491567;46;9037;-61
2021/08/20 10:40:36;;;;;;;;;20.50;15.75;;;;;;;;6492510;31;8921;-60
2021/08/20 10:46:42;;;;;;;;;15.25;15.25;;;;;;;;6491146;39;9643;-59
2021/08/20 10:52:53;;;;;;;;;14.50;13.00;;;;;;;;6490994;46;9057;-59
2021/08/20 10:59:05;;;;;;;;;12.75;12.75;;;;;;;;6491784;31;8959;-61
2021/08/20 11:05:16;;;;;;;;;15.50;14.25;;;;;;;;6489998;39;8985;-59
2021/08/20 11:11:44;;;;;;;;;16.00;15.50;;;;;;;;6491148;39;8900;-59
2021/08/20 11:18:03;;;;;;;;;18.50;16.00;;;;;;;;6490049;31;8886;-59
2021/08/20 11:24:19;;;;;;;;;17.25;16.50;;;;;;;;6491244;39;8907;-60
2021/08/20 11:30:31;;;;;;;;;15.00;14.50;;;;;;;;6491666;39;9510;-60
2021/08/20 11:36:34;;;;;;;;;14.00;13.25;;;;;;;;6491863;47;8907;-59
2021/08/20 11:42:36;;;;;;;;;18.25;18.25;;;;;;;;6491223;31;8966;-60
2021/08/20 11:48:51;;;;;;;;;14.25;14.25;;;;;;;;6491074;39;9022;-59
2021/08/20 11:54:53;;;;;;;;;13.50;13.50;;;;;;;;6491515;47;8923;-59
2021/08/20 12:00:55;;;;;;;;;20.50;17.00;;;;;;;;6491056;39;9000;-60
2021/08/20 12:06:58;;;;;;;;;14.00;13.50;;;;;;;;6492109;39;8915;-62
2021/08/20 12:13:02;;;;;;;;;15.00;15.00;;;;;;;;6489524;47;8998;-59
2021/08/20 12:19:13;;;;;;;;;13.25;13.25;;;;;;;;6491380;47;8998;-60
2021/08/20 12:25:16;;;;;;;;;14.75;14.75;;;;;;;;6491684;39;9134;-60
2021/08/20 12:31:26;;;;;;;;;11.00;11.00;;;;;;;;6491600;46;9045;-60
2021/08/20 12:37:29;;;;;;;;;15.75;14.75;;;;;;;;6493223;39;8978;-61
2021/08/20 12:43:35;;;;;;;;;13.00;13.00;;;;;;;;6492612;39;8974;-60
2021/08/20 12:50:01;;;;;;;;;11.75;11.75;;;;;;;;6493049;39;8971;-60
2021/08/20 12:56:04;;;;;;;;;17.50;15.00;;;;;;;;6494050;31;9002;-59
2021/08/20 13:02:07;;;;;;;;;16.75;14.50;;;;;;;;6493119;39;9067;-60
2021/08/20 13:08:09;;;;;;;;;12.25;12.25;;;;;;;;6494310;39;9566;-60
2021/08/20 13:14:12;;;;;;;;;7.50;7.50;;;;;;;;6492341;39;9003;-59
2021/08/20 13:20:15;;;;;;;;;16.00;16.00;;;;;;;;6492090;39;8965;-59
2021/08/20 13:26:17;;;;;;;;;14.25;14.25;;;;;;;;6491637;39;8987;-61
2021/08/20 13:32:19;;;;;;;;;13.00;13.00;;;;;;;;6491866;39;8969;-59
2021/08/20 13:38:22;;;;;;;;;17.25;17.00;;;;;;;;6491923;46;9027;-60
2021/08/20 13:44:24;;;;;;;;;20.00;15.25;;;;;;;;6491110;31;8993;-59
2021/08/20 13:50:26;;;;;;;;;12.75;11.25;;;;;;;;6490435;39;8975;-63
2021/08/20 13:56:28;;;;;;;;;15.00;15.00;;;;;;;;6489222;46;8969;-63
2021/08/20 14:02:31;;;;;;;;;13.25;12.25;;;;;;;;6490301;46;9049;-63
2021/08/20 14:08:35;;;;;;;;;17.00;12.25;;;;;;;;6492749;31;8898;-61
2021/08/20 14:14:37;;;;;;;;;15.00;12.75;;;;;;;;6492288;39;8975;-64
2021/08/20 14:20:39;;;;;;;;;11.75;11.75;;;;;;;;6492521;31;8954;-62
2021/08/20 14:26:42;;;;;;;;;13.75;13.25;;;;;;;;6492835;46;9014;-62
2021/08/20 14:32:46;;;;;;;;;13.00;10.25;;;;;;;;6491948;39;8993;-62
2021/08/20 14:38:48;;;;;;;;;14.50;14.25;;;;;;;;6493047;39;8924;-61
2021/08/20 14:44:50;;;;;;;;;12.75;12.50;;;;;;;;6491610;46;9017;-62
2021/08/20 14:50:53;;;;;;;;;12.50;12.50;;;;;;;;6491689;39;9635;-61
2021/08/20 14:56:56;;;;;;;;;11.50;11.50;;;;;;;;6492513;39;9069;-62
2021/08/20 15:02:59;;;;;;;;;11.00;11.00;;;;;;;;6491334;39;9075;-62
2021/08/20 15:09:02;;;;;;;;;13.00;13.00;;;;;;;;6492064;39;8933;-61
2021/08/20 15:15:05;;;;;;;;;11.25;11.25;;;;;;;;6491602;39;10072;-61
2021/08/20 15:21:08;;;;;;;;;14.25;13.75;;;;;;;;6492472;39;9057;-62
2021/08/20 15:27:10;;;;;;;;;14.00;13.00;;;;;;;;6492835;31;9199;-62
2021/08/20 15:33:12;;;;;;;;;12.50;12.50;;;;;;;;6491221;46;9057;-62
2021/08/20 15:39:14;;;;;;;;;13.00;12.00;;;;;;;;6492275;39;9691;-62
2021/08/20 15:45:16;;;;;;;;;12.75;11.75;;;;;;;;6491731;31;8977;-62
2021/08/20 15:51:19;;;;;;;;;14.25;13.75;;;;;;;;6491545;39;9000;-62
2021/08/20 15:57:21;;;;;;;;;14.25;13.25;;;;;;;;6491813;46;9072;-63
2021/08/20 16:03:23;;;;;;;;;11.50;11.50;;;;;;;;6491559;39;9118;-62
2021/08/20 16:09:25;;;;;;;;;14.00;12.75;;;;;;;;6495110;39;8928;-62
2021/08/20 16:15:27;;;;;;;;;15.25;15.25;;;;;;;;6493715;31;8963;-62
2021/08/20 16:21:30;;;;;;;;;14.75;13.75;;;;;;;;6493522;31;9163;-62
2021/08/20 16:27:33;;;;;;;;;13.50;12.75;;;;;;;;6493159;46;9026;-61
2021/08/20 16:33:35;;;;;;;;;15.50;14.00;;;;;;;;6492903;39;8975;-62
2021/08/20 16:39:38;;;;;;;;;16.50;15.00;;;;;;;;6493755;39;8970;-61
2021/08/20 16:45:40;;;;;;;;;14.00;13.25;;;;;;;;6510262;36;8985;-63
2021/08/20 16:51:48;;;;;;;;;16.75;16.75;;;;;;;;6493089;39;8992;-64
2021/08/20 16:57:51;;;;;;;;;17.75;15.25;;;;;;;;6493299;46;9071;-61
2021/08/20 17:03:54;;;;;;;;;16.75;16.00;;;;;;;;6493086;39;10044;-61
2021/08/20 17:09:59;;;;;;;;;20.00;17.00;;;;;;;;6493786;39;8981;-62
2021/08/20 17:16:01;;;;;;;;;16.00;15.50;;;;;;;;6492575;46;9006;-63
2021/08/20 17:22:08;;;;;;;;;17.00;16.00;;;;;;;;6493547;39;8930;-61
2021/08/20 17:28:10;;;;;;;;;23.00;21.75;;;;;;;;6492808;46;9069;-62
2021/08/20 17:34:13;;;;;;;;;31.25;28.00;;;;;;;;6492062;46;8950;-62
2021/08/20 17:40:16;;;;;;;;;22.25;22.25;;;;;;;;6492952;46;8938;-61
2021/08/20 17:46:19;;;;;;;;;24.50;21.50;;;;;;;;6492386;39;9009;-62
2021/08/20 17:52:21;;;;;;;;;26.50;23.00;;;;;;;;6492348;39;8922;-63
2021/08/20 17:58:25;;;;;;;;;19.50;19.00;;;;;;;;6492676;39;8988;-64
2021/08/20 18:04:28;;;;;;;;;30.00;24.50;;;;;;;;6491988;31;8978;-62
2021/08/20 18:10:30;;;;;;;;;21.00;20.75;;;;;;;;6493470;31;8937;-63
2021/08/20 18:16:32;;;;;;;;;24.00;22.50;;;;;;;;6491999;46;9045;-62
2021/08/20 18:22:35;;;;;;;;;21.00;19.67;;;;;;;;6493237;31;9049;-61
2021/08/20 18:28:38;;;;;;;;;15.00;15.00;;;;;;;;6492438;39;8958;-63
2021/08/20 18:34:42;;;;;;;;;25.00;16.00;;;;;;;;6491414;39;8966;-64
2021/08/20 18:40:44;;;;;;;;;21.75;20.50;;;;;;;;6492723;46;8989;-63
2021/08/20 18:46:46;;;;;;;;;27.25;24.25;;;;;;;;6492149;31;8982;-64
2021/08/20 18:52:51;;;;;;;;;19.50;14.50;;;;;;;;6492432;39;9003;-61
2021/08/20 18:58:53;;;;;;;;;20.00;20.00;;;;;;;;6492257;46;8942;-62
2021/08/20 19:04:55;;;;;;;;;19.67;18.67;;;;;;;;6492405;31;9056;-62
2021/08/20 19:11:00;;;;;;;;;19.67;19.67;;;;;;;;6491628;46;8969;-63
2021/08/20 19:17:03;;;;;;;;;26.67;21.67;;;;;;;;6490361;39;9040;-62
2021/08/20 19:23:05;;;;;;;;;19.00;18.33;;;;;;;;6491888;39;8958;-61
2021/08/20 19:29:08;;;;;;;;;20.00;19.25;;;;;;;;6492140;39;8954;-62
2021/08/20 19:35:12;;;;;;;;;20.33;19.67;;;;;;;;6491315;46;9045;-62
2021/08/20 19:41:14;;;;;;;;;25.00;24.00;;;;;;;;6492107;39;9082;-62
2021/08/20 19:47:16;;;;;;;;;23.00;22.00;;;;;;;;6491397;46;8990;-62
2021/08/20 19:53:18;;;;;;;;;21.33;20.00;;;;;;;;6491154;47;8911;-62
2021/08/20 19:59:21;;;;;;;;;26.00;20.33;;;;;;;;6491415;47;8946;-64
2021/08/20 20:05:23;;;;;;;;;19.67;19.67;;;;;;;;6491507;39;9037;-63
2021/08/20 20:11:25;;;;;;;;;20.33;19.33;;;;;;;;6492564;31;9009;-62
2021/08/20 20:17:27;;;;;;;;;22.00;19.33;;;;;;;;6490187;47;8977;-63
2021/08/20 20:23:30;;;;;;;;;20.00;20.00;;;;;;;;6491311;39;8961;-62
2021/08/20 20:29:33;;;;;;;;;19.33;18.33;;;;;;;;6491942;39;9061;-63
2021/08/20 20:35:35;;;;;;;;;22.67;21.67;;;;;;;;6491490;39;9079;-62
2021/08/20 20:41:37;;;;;;;;;22.33;21.67;;;;;;;;6492320;31;9057;-63
2021/08/20 20:47:40;;;;;;;;;19.00;19.00;;;;;;;;6491212;39;8978;-64
2021/08/20 20:53:42;;;;;;;;;20.00;20.00;;;;;;;;6494387;39;9574;-61
2021/08/20 20:59:44;;;;;;;;;21.00;18.67;;;;;;;;6492972;46;9057;-62
2021/08/20 21:05:47;;;;;;;;;20.33;19.33;;;;;;;;6492669;39;8994;-60
2021/08/20 21:11:49;;;;;;;;;22.67;20.00;;;;;;;;6493503;39;8982;-63
2021/08/20 21:17:51;;;;;;;;;19.00;18.33;;;;;;;;6493501;39;9701;-62
2021/08/20 21:23:54;;;;;;;;;18.00;18.00;;;;;;;;6493067;46;8948;-63
2021/08/20 21:29:57;;;;;;;;;24.67;20.67;;;;;;;;6493168;39;8961;-62
2021/08/20 21:35:59;;;;;;;;;17.00;16.00;;;;;;;;6493113;39;9712;-63
2021/08/20 21:42:01;;;;;;;;;21.00;18.00;;;;;;;;6493508;39;8946;-62
2021/08/20 21:48:07;;;;;;;;;15.67;15.67;;;;;;;;6492185;46;9046;-63
2021/08/20 21:54:10;;;;;;;;;20.33;17.00;;;;;;;;6493506;39;9001;-62
2021/08/20 22:00:13;;;;;;;;;19.33;16.00;;;;;;;;6491032;39;9845;-62
2021/08/20 22:06:16;;;;;;;;;17.33;16.00;;;;;;;;6492735;31;9622;-63
2021/08/20 22:12:18;;;;;;;;;16.33;15.00;;;;;;;;6493116;39;9049;-61
2021/08/20 22:18:21;;;;;;;;;16.33;15.00;;;;;;;;6491214;39;8970;-62
2021/08/20 22:24:23;;;;;;;;;17.33;17.33;;;;;;;;6493144;39;9126;-62
2021/08/20 22:30:26;;;;;;;;;19.67;19.00;;;;;;;;6492084;46;8962;-62
2021/08/20 22:36:28;;;;;;;;;20.67;17.67;;;;;;;;6491959;46;9009;-61
2021/08/20 22:42:34;;;;;;;;;31.33;29.00;;;;;;;;6492829;46;9013;-63
2021/08/20 22:48:37;;;;;;;;;23.67;23.00;;;;;;;;6492549;31;9123;-61
2021/08/20 22:54:39;;;;;;;;;22.33;22.33;;;;;;;;6493001;39;8915;-62
2021/08/20 23:00:44;;;;;;;;;23.67;22.33;;;;;;;;6492017;39;9029;-62
2021/08/20 23:06:46;;;;;;;;;24.00;22.33;;;;;;;;6492759;39;8986;-63
2021/08/20 23:12:49;;;;;;;;;21.67;20.67;;;;;;;;6491719;31;9104;-61
2021/08/20 23:18:53;;;;;;;;;24.00;23.33;;;;;;;;6491905;39;8950;-62
2021/08/20 23:24:56;;;;;;;;;26.33;23.00;;;;;;;;6492709;39;9577;-61
2021/08/20 23:30:58;;;;;;;;;24.00;23.00;;;;;;;;6491417;46;8938;-62
2021/08/20 23:37:02;;;;;;;;;25.33;22.33;;;;;;;;6491174;46;8946;-61
2021/08/20 23:43:04;;;;;;;;;31.00;27.67;;;;;;;;6492378;39;9073;-62
2021/08/20 23:49:08;;;;;;;;;24.00;22.00;;;;;;;;6489932;39;9103;-61
2021/08/20 23:55:11;;;;;;;;;22.00;21.00;;;;;;;;6492563;31;9013;-62
